Newdale, Canada
Current Conditions -  °F | °C
As of 6:10 PM on Thursday 27 Nov 2014 (Local Time) from CYBR Reporting Station
Light Snow Light Snow  
Wind Chill: -4°   Ceiling: 5000
Heat Index:   Visibility: 6mi
Dew Point:   Wind: 8mph
Humidity: 85%   Direction: 120°ESE
Pressure: 30.09"   Gusts: NA
Location:  50.35°N, 100.2°W
Report Text: CYBR 280010Z 12007KT 6SM -SN SCT006 OVC050 M13/M15 A3009 RMK SF3SC5 SLP238
Loading
Personal Weather Stations






























Interactive Weather Map New forecast layout! Learn more

10-Day Weather Forecast

Advertisements
Track Severe Weather on mobile